메인 페이지
METAR-TAF:

METAR-TAF

공항 :

리치먼드, 오스트레일리아

위도: 33-36S, 경도: 150-47E, 고도: 21m

현재 날씨관측

예보는 29분 전, 14:30시(UTC)에 발표되었습니다.
무풍
온도 9°C
습도 100%
기압 1026 hPa
시정: 0400m
고도 300ft 상공 흐림

METAR: YSRI 251430Z AUTO 00000KT 0400 // OVC003 09/09 Q1026 RF00.0/000.2

시각: 00:59 (14:59 UTC)

예보

예보는 3 시간 58분 전, 11:01시(UTC)에 발표되었습니다.
예보 대상 시간: 25일 11시부터 26일 12시까지 (UTC)
여러 방향의 바람 3kt
시정 10km 이상
1500m 미만 상공 구름 및 적란운 없음
25일 1400시부터 (UTC)
여러 방향의 바람 3kt
시정: 0300m
안개
전환 중
25일 23시부터 26일 00시까지 (UTC)
여러 방향의 바람 3kt
시정 10km 이상
1500m 미만 상공 구름 및 적란운 없음
확률 40%
25일 11시부터 25일 14시까지 (UTC)
시정: 0300m
안개,

TAF: YSRI 251101Z 2511/2612 VRB03KT CAVOK FM251400 VRB03KT 0300 FG NSC BECMG 2523/2600 VRB03KT CAVOK PROB40 2511/2514 0300 FG NSC

4,000개 이상의 공항 관측 자료 및 예보 (METAR 및 TAF 보고).

지도상에서 검색 가능한 기상관측소가 노란 점과 빨간 점으로 표시되어 있습니다.

기상관측소 명을 보려면 표시 위로 마우스를 이동하세요.

날씨 관측과 예보를 보려면 클릭하세요.

지도 변경 : 확대하려면 엑스 표시가 있는 녹색 버튼, 축소하려면 빼기 표시가 있는 녹색 버튼, 다음 페이지의 지도를 보려면 녹색 화살표를 클릭하세요.


METAR-TAF: